Time;durP1;ratioP1;P1;durP2;ratioP2;P2;SDS_P1;SDS_P2;PMS_P1;PMS_P2;Temp;Humidity;BMP_temperature;BMP_pressure;BME280_temperature;BME280_humidity;BME280_pressure;Samples;Min_cycle;Max_cycle;Signal;HPM_P1;HPM_P2
2022/08/13 00:00:14;;;;;;;10.18;3.35;;;19.20;82.80;;;;;;5091194;28;20036;-52
2022/08/13 00:02:42;;;;;;;6.30;3.20;;;19.10;83.00;;;;;;5076389;28;20040;-51
2022/08/13 00:05:09;;;;;;;5.03;2.78;;;19.10;83.10;;;;;;5082280;28;20048;-55
2022/08/13 00:07:36;;;;;;;8.95;3.15;;;19.10;83.20;;;;;;5058208;28;20513;-51
2022/08/13 00:10:04;;;;;;;7.10;2.90;;;19.10;83.40;;;;;;5084504;28;20059;-55
2022/08/13 00:15:35;;;;;;;6.25;2.67;;;19.10;83.50;;;;;;5078336;28;20040;-55
2022/08/13 00:18:06;;;;;;;9.45;2.65;;;19.10;83.40;;;;;;5074098;28;20037;-53
2022/08/13 00:20:49;;;;;;;6.40;2.90;;;19.10;83.30;;;;;;5087268;28;20481;-55
2022/08/13 00:23:17;;;;;;;3.83;2.50;;;19.10;83.90;;;;;;5090989;28;20455;-53
2022/08/13 00:25:45;;;;;;;8.23;2.90;;;19.10;84.00;;;;;;5090378;28;20031;-50
2022/08/13 00:28:12;;;;;;;4.60;3.15;;;19.10;84.50;;;;;;5076782;28;20083;-49
2022/08/13 00:30:38;;;;;;;4.90;2.80;;;19.00;84.10;;;;;;5090647;28;20037;-55
2022/08/13 00:33:10;;;;;;;3.75;2.60;;;19.00;84.00;;;;;;5062394;28;20071;-51
2022/08/13 00:35:36;;;;;;;6.97;2.88;;;18.90;84.00;;;;;;5045463;28;20040;-51
2022/08/13 00:38:04;;;;;;;5.90;2.95;;;18.90;84.10;;;;;;5073918;28;20517;-52
2022/08/13 00:40:31;;;;;;;8.57;3.50;;;18.90;84.10;;;;;;5086011;28;20089;-56
2022/08/13 00:43:03;;;;;;;10.13;2.38;;;18.90;84.30;;;;;;5087334;28;20524;-52
2022/08/13 00:45:31;;;;;;;4.93;2.47;;;18.80;84.40;;;;;;5072255;28;20044;-55
2022/08/13 00:50:42;;;;;;;8.30;2.20;;;18.80;84.60;;;;;;5074626;28;21235;-52
2022/08/13 00:53:16;;;;;;;6.70;2.35;;;18.80;83.90;;;;;;5080622;28;20462;-55
2022/08/13 00:55:45;;;;;;;6.82;2.28;;;18.80;83.80;;;;;;5083117;28;20366;-51
2022/08/13 00:58:11;;;;;;;2.33;2.13;;;18.80;83.80;;;;;;5086355;28;20039;-54
2022/08/13 01:00:36;;;;;;;;;;;18.90;83.60;;;;;;5088826;28;20461;-58
2022/08/13 01:03:03;;;;;;;8.13;2.00;;;18.90;83.20;;;;;;5086174;28;19959;-55
2022/08/13 01:05:29;;;;;;;4.22;2.40;;;18.90;82.70;;;;;;5076685;28;20236;-55
2022/08/13 01:07:56;;;;;;;4.32;1.67;;;18.90;82.60;;;;;;5084647;28;20546;-54
2022/08/13 01:10:21;;;;;;;5.72;1.75;;;18.90;82.10;;;;;;5079064;28;20075;-52
2022/08/13 01:12:50;;;;;;;6.82;2.13;;;18.90;82.30;;;;;;5075182;28;20064;-53
2022/08/13 01:15:16;;;;;;;5.65;2.22;;;18.90;82.20;;;;;;5087686;28;20405;-54
2022/08/13 01:17:45;;;;;;;4.35;1.85;;;18.90;82.40;;;;;;5072162;28;20115;-52
2022/08/13 01:20:20;;;;;;;5.88;1.73;;;18.90;82.20;;;;;;5087583;28;20126;-52
2022/08/13 01:22:49;;;;;;;4.30;2.10;;;18.90;82.20;;;;;;5077888;28;20047;-55
2022/08/13 01:25:16;;;;;;;6.88;1.88;;;18.80;82.30;;;;;;5087106;28;20055;-55
2022/08/13 01:27:41;;;;;;;2.22;1.90;;;18.70;82.70;;;;;;5074760;28;20410;-54
2022/08/13 01:30:09;;;;;;;5.40;1.95;;;18.70;83.50;;;;;;5081008;28;20029;-52
2022/08/13 01:32:37;;;;;;;2.97;2.30;;;18.60;83.60;;;;;;5073798;28;20032;-56
2022/08/13 01:35:05;;;;;;;2.88;1.50;;;18.60;83.70;;;;;;5083809;28;20047;-57
2022/08/13 01:37:33;;;;;;;4.00;1.45;;;18.50;84.20;;;;;;5076959;28;20044;-56
2022/08/13 01:39:59;;;;;;;7.28;1.75;;;18.50;83.90;;;;;;5088940;28;20039;-52
2022/08/13 01:42:25;;;;;;;3.42;1.67;;;18.50;83.50;;;;;;5082605;28;20043;-56
2022/08/13 01:44:51;;;;;;;5.18;1.85;;;18.50;83.70;;;;;;5077396;28;20294;-57
2022/08/13 01:52:48;;;;;;;5.03;1.92;;;18.40;83.30;;;;;;5075560;28;20048;-56
2022/08/13 01:55:14;;;;;;;5.13;1.38;;;18.40;82.60;;;;;;5089045;28;20036;-58
2022/08/13 01:57:44;;;;;;;5.78;1.88;;;18.40;82.50;;;;;;5087654;28;20077;-53
2022/08/13 02:00:13;;;;;;;3.83;1.90;;;18.40;82.30;;;;;;5061540;28;20047;-51
2022/08/13 02:02:42;;;;;;;2.90;1.45;;;18.50;82.40;;;;;;5081406;28;20487;-53
2022/08/13 02:05:11;;;;;;;1.65;1.27;;;18.40;82.20;;;;;;5084644;28;20581;-52
2022/08/13 02:07:42;;;;;;;11.52;2.78;;;18.40;82.60;;;;;;5072256;28;20508;-53
2022/08/13 02:10:07;;;;;;;2.83;2.38;;;18.40;82.30;;;;;;5089055;28;20075;-54
2022/08/13 02:12:34;;;;;;;6.82;1.80;;;18.40;82.70;;;;;;5085963;28;20060;-55
2022/08/13 02:15:04;;;;;;;3.97;1.27;;;18.30;82.60;;;;;;5080898;28;20040;-51
2022/08/13 02:17:35;;;;;;;4.18;1.75;;;18.30;82.50;;;;;;5070104;28;20044;-53
2022/08/13 02:20:02;;;;;;;6.22;1.60;;;18.30;82.50;;;;;;5078329;28;20039;-58
2022/08/13 02:22:27;;;;;;;1.70;1.40;;;18.30;82.30;;;;;;5089894;28;20044;-52
2022/08/13 02:24:56;;;;;;;2.85;1.40;;;18.30;82.30;;;;;;5072625;28;20525;-52
2022/08/13 02:27:24;;;;;;;4.95;1.65;;;18.30;82.70;;;;;;5088366;28;20468;-53
2022/08/13 02:29:52;;;;;;;4.07;1.80;;;18.20;82.60;;;;;;5055930;28;20516;-54
2022/08/13 02:32:19;;;;;;;2.90;1.23;;;18.30;82.60;;;;;;5069920;28;20044;-53
2022/08/13 02:34:46;;;;;;;2.10;1.70;;;18.20;82.20;;;;;;5084314;28;20035;-53
2022/08/13 02:37:13;;;;;;;3.60;1.90;;;18.20;81.90;;;;;;5070085;28;20067;-53
2022/08/13 02:39:39;;;;;;;7.20;1.08;;;18.20;82.40;;;;;;5084985;28;20533;-52
2022/08/13 02:42:05;;;;;;;2.70;1.45;;;18.10;82.80;;;;;;5053925;28;20052;-56
2022/08/13 02:44:31;;;;;;;51.38;3.70;;;18.10;83.20;;;;;;5071084;28;20136;-52
2022/08/13 02:46:56;;;;;;;14.73;2.22;;;18.00;83.30;;;;;;5085911;28;20096;-56
2022/08/13 02:49:22;;;;;;;7.38;1.65;;;18.00;83.00;;;;;;5081464;28;20067;-53
2022/08/13 02:51:49;;;;;;;1.70;1.50;;;18.00;82.90;;;;;;5074674;28;20028;-54
2022/08/13 02:54:20;;;;;;;11.40;2.65;;;18.00;83.40;;;;;;5077984;28;20491;-52
2022/08/13 02:56:47;;;;;;;3.72;1.85;;;17.90;84.10;;;;;;5084019;28;20048;-56
2022/08/13 02:59:12;;;;;;;7.13;1.77;;;17.80;84.40;;;;;;5086252;28;20032;-54
2022/08/13 03:01:39;;;;;;;3.00;1.40;;;17.70;84.70;;;;;;5079090;28;20173;-54
2022/08/13 03:04:06;;;;;;;2.17;1.92;;;17.60;85.00;;;;;;5082252;28;20089;-57
2022/08/13 03:06:32;;;;;;;4.28;1.88;;;17.50;85.10;;;;;;5075543;28;20032;-53
2022/08/13 03:08:58;;;;;;;;;;;17.50;85.10;;;;;;5079663;28;20044;-57
2022/08/13 03:11:23;;;;;;;5.50;1.17;;;17.50;85.50;;;;;;5083716;28;19999;-54
2022/08/13 03:14:09;;;;;;;49.00;4.25;;;17.40;85.20;;;;;;5078557;28;20035;-54
2022/08/13 03:16:35;;;;;;;23.17;2.50;;;17.40;86.00;;;;;;5077332;28;20117;-55
2022/08/13 03:19:01;;;;;;;19.33;3.10;;;17.40;85.50;;;;;;5061135;28;20076;-53
2022/08/13 03:21:36;;;;;;;4.20;1.77;;;17.30;85.50;;;;;;5091696;28;20406;-55
2022/08/13 03:24:03;;;;;;;5.70;1.73;;;17.30;86.00;;;;;;5091957;28;20097;-57
2022/08/13 03:26:31;;;;;;;2.13;1.60;;;17.20;85.80;;;;;;5093485;28;20040;-55
2022/08/13 03:29:01;;;;;;;3.58;1.75;;;17.30;85.80;;;;;;5088027;28;20401;-52
2022/08/13 03:31:28;;;;;;;4.82;1.67;;;17.20;86.00;;;;;;5085566;28;20036;-55
2022/08/13 03:33:55;;;;;;;4.80;1.58;;;17.20;86.30;;;;;;5089610;28;20047;-54
2022/08/13 03:36:21;;;;;;;2.25;1.65;;;17.20;86.50;;;;;;5074751;28;20594;-52
2022/08/13 03:38:47;;;;;;;4.07;1.90;;;17.10;86.70;;;;;;5076063;28;20037;-54
2022/08/13 03:41:14;;;;;;;6.50;1.85;;;17.10;86.80;;;;;;5093309;28;20066;-55
2022/08/13 03:43:45;;;;;;;4.60;1.75;;;17.00;87.10;;;;;;5086753;28;20036;-53
2022/08/13 03:46:17;;;;;;;3.58;1.90;;;16.90;87.40;;;;;;5082278;28;20035;-51
2022/08/13 03:48:47;;;;;;;2.63;2.42;;;16.80;87.60;;;;;;5090938;28;20119;-53
2022/08/13 03:51:13;;;;;;;2.85;1.45;;;16.70;87.80;;;;;;5073163;28;20055;-53
2022/08/13 03:53:39;;;;;;;;;;;16.60;88.30;;;;;;5073765;28;20098;-52
2022/08/13 03:56:06;;;;;;;5.88;2.30;;;16.60;89.40;;;;;;5073720;28;19962;-53
2022/08/13 03:58:32;;;;;;;7.75;2.30;;;16.50;88.90;;;;;;5073386;28;20044;-55
2022/08/13 04:01:01;;;;;;;2.17;1.52;;;16.50;88.90;;;;;;5075495;28;20045;-52
2022/08/13 04:03:29;;;;;;;4.30;1.92;;;16.50;88.90;;;;;;5086819;28;20385;-53
2022/08/13 04:06:04;;;;;;;2.95;2.03;;;16.50;89.20;;;;;;5078292;28;20079;-56
2022/08/13 04:08:34;;;;;;;3.25;1.88;;;16.40;89.60;;;;;;5068088;28;20131;-55
2022/08/13 04:11:03;;;;;;;3.92;2.03;;;16.50;89.30;;;;;;5088782;28;20093;-54
2022/08/13 04:13:31;;;;;;;6.97;2.30;;;16.50;88.80;;;;;;5090626;28;20047;-54
2022/08/13 04:15:57;;;;;;;6.00;2.03;;;16.60;88.80;;;;;;5083962;28;20089;-53
2022/08/13 04:18:22;;;;;;;7.80;2.60;;;16.60;88.20;;;;;;5072414;28;20257;-55
2022/08/13 04:20:52;;;;;;;4.80;1.98;;;16.70;88.20;;;;;;5084857;28;20044;-53
2022/08/13 04:23:20;;;;;;;2.65;2.13;;;16.70;88.10;;;;;;5091913;28;20122;-53
2022/08/13 04:25:49;;;;;;;4.38;2.10;;;16.70;88.40;;;;;;5067808;28;20079;-56
2022/08/13 04:28:16;;;;;;;7.95;2.08;;;16.80;88.20;;;;;;5086126;28;20414;-58
2022/08/13 04:30:43;;;;;;;6.07;2.20;;;16.80;88.20;;;;;;5060292;28;20127;-53
2022/08/13 04:33:13;;;;;;;4.40;1.98;;;16.80;87.90;;;;;;5076850;28;20075;-56
2022/08/13 04:35:39;;;;;;;4.55;2.33;;;16.90;87.80;;;;;;5081078;28;20497;-52
2022/08/13 04:38:06;;;;;;;7.95;2.40;;;16.90;88.00;;;;;;5085369;28;20055;-54
2022/08/13 04:40:33;;;;;;;5.32;3.15;;;16.80;88.10;;;;;;5082672;28;20072;-56
2022/08/13 04:42:59;;;;;;;4.15;1.90;;;16.80;88.40;;;;;;5092204;28;20442;-52
2022/08/13 04:45:26;;;;;;;5.88;2.25;;;16.80;88.70;;;;;;5059126;28;20135;-55
2022/08/13 04:47:53;;;;;;;9.77;2.70;;;16.80;88.80;;;;;;5088259;28;20036;-53
2022/08/13 04:50:19;;;;;;;51.42;4.82;;;16.70;88.10;;;;;;5078132;28;20499;-55
2022/08/13 04:52:44;;;;;;;2.90;2.28;;;16.70;88.00;;;;;;5087081;28;20059;-56
2022/08/13 04:55:12;;;;;;;5.07;2.13;;;16.70;88.20;;;;;;5078667;28;20489;-56
2022/08/13 04:57:38;;;;;;;7.15;2.25;;;16.70;88.20;;;;;;5091513;28;20051;-52
2022/08/13 05:00:08;;;;;;;6.63;2.65;;;16.70;88.20;;;;;;5084312;28;20043;-55
2022/08/13 05:02:40;;;;;;;3.85;2.60;;;16.70;88.40;;;;;;5077905;28;20064;-56
2022/08/13 05:05:07;;;;;;;4.22;2.03;;;16.70;88.40;;;;;;5077539;28;20049;-54
2022/08/13 05:07:33;;;;;;;5.32;2.20;;;16.70;88.30;;;;;;5053490;28;20082;-53
2022/08/13 05:09:58;;;;;;;;;;;16.80;88.30;;;;;;5081810;28;20565;-55
2022/08/13 05:12:24;;;;;;;5.53;3.05;;;16.80;88.30;;;;;;5077056;28;19995;-57
2022/08/13 05:14:50;;;;;;;2.45;1.98;;;16.80;88.70;;;;;;5079486;28;20096;-52
2022/08/13 05:17:16;;;;;;;7.95;1.90;;;16.70;88.30;;;;;;5076456;28;20145;-57
2022/08/13 05:19:42;;;;;;;5.40;2.70;;;16.80;88.30;;;;;;5084965;28;20036;-53
2022/08/13 05:22:07;;;;;;;;;;;16.80;88.30;;;;;;5075600;28;20104;-53
2022/08/13 05:24:33;;;;;;;3.53;2.17;;;16.90;88.80;;;;;;5087575;28;19928;-55
2022/08/13 05:26:59;;;;;;;2.70;2.50;;;17.00;88.70;;;;;;5080126;28;20139;-53
2022/08/13 05:29:25;;;;;;;6.03;2.60;;;17.10;89.10;;;;;;5076091;28;20494;-54
2022/08/13 05:31:54;;;;;;;2.88;2.67;;;17.20;90.00;;;;;;5073984;28;20037;-53
2022/08/13 05:34:19;;;;;;;3.00;2.70;;;17.40;89.90;;;;;;5086481;28;20517;-52
2022/08/13 05:36:46;;;;;;;7.55;2.92;;;17.50;90.00;;;;;;5088599;28;20115;-53
2022/08/13 05:39:13;;;;;;;4.10;2.67;;;17.60;90.10;;;;;;5081446;28;20114;-55
2022/08/13 05:41:39;;;;;;;21.95;2.45;;;17.70;90.40;;;;;;5058376;28;20128;-55
2022/08/13 05:44:05;;;;;;;;;;;17.90;90.20;;;;;;5086071;28;20119;-55
2022/08/13 05:46:30;;;;;;;40.45;3.40;;;18.00;90.70;;;;;;5089731;28;19995;-57
2022/08/13 05:48:56;;;;;;;10.85;2.75;;;18.10;90.10;;;;;;5073626;28;20143;-57
2022/08/13 05:51:28;;;;;;;6.40;2.95;;;18.20;90.60;;;;;;5073277;28;20036;-55
2022/08/13 05:53:55;;;;;;;4.00;2.80;;;18.30;90.80;;;;;;5086513;28;20058;-56
2022/08/13 05:56:21;;;;;;;8.68;2.50;;;18.50;90.90;;;;;;5087872;28;20374;-53
2022/08/13 05:58:48;;;;;;;3.70;2.20;;;18.60;90.50;;;;;;5086747;28;20489;-55
2022/08/13 06:04:00;;;;;;;7.63;3.13;;;18.90;90.30;;;;;;5087917;28;20047;-53
2022/08/13 06:06:26;;;;;;;4.63;2.55;;;19.00;89.80;;;;;;5064582;28;20040;-55
2022/08/13 06:08:59;;;;;;;;;;;19.10;90.30;;;;;;5072429;28;20028;-57
2022/08/13 06:11:27;;;;;;;5.85;2.85;;;19.20;90.30;;;;;;5070278;28;20458;-58
2022/08/13 06:13:52;;;;;;;4.38;3.25;;;19.30;90.30;;;;;;5059059;28;20081;-57
2022/08/13 06:16:20;;;;;;;3.45;3.05;;;19.40;90.10;;;;;;5077362;28;20044;-53
2022/08/13 06:18:48;;;;;;;6.03;3.00;;;19.60;90.00;;;;;;5070367;28;20098;-52
2022/08/13 06:21:16;;;;;;;3.38;3.08;;;19.70;89.40;;;;;;5069948;28;20052;-52
2022/08/13 06:23:45;;;;;;;2.78;2.55;;;19.80;88.80;;;;;;5069987;28;20414;-53
2022/08/13 06:26:14;;;;;;;3.15;2.83;;;19.90;88.60;;;;;;5078776;28;20040;-53
2022/08/13 06:28:40;;;;;;;2.65;2.35;;;20.00;88.50;;;;;;5090461;28;20050;-53
2022/08/13 06:31:07;;;;;;;;;;;20.10;88.30;;;;;;5091042;28;20070;-53
2022/08/13 06:33:35;;;;;;;3.33;2.70;;;20.20;88.40;;;;;;5090402;28;19915;-53
2022/08/13 06:36:04;;;;;;;8.75;2.25;;;20.30;88.30;;;;;;5072915;28;20046;-54
2022/08/13 06:38:32;;;;;;;3.88;2.08;;;20.40;88.60;;;;;;5094407;28;20047;-50
2022/08/13 06:40:59;;;;;;;4.40;1.88;;;20.50;88.20;;;;;;5093979;28;20052;-53
2022/08/13 06:43:26;;;;;;;3.97;2.00;;;20.70;87.30;;;;;;5094383;28;20113;-53
2022/08/13 06:45:52;;;;;;;5.75;2.08;;;20.80;87.40;;;;;;5094019;28;20224;-55
2022/08/13 06:48:18;;;;;;;;;;;20.90;86.80;;;;;;5094552;28;20713;-55
2022/08/13 06:50:44;;;;;;;2.95;1.58;;;21.00;86.40;;;;;;5094265;28;19916;-53
2022/08/13 06:53:10;;;;;;;5.63;1.58;;;21.10;86.30;;;;;;5093740;28;20066;-52
2022/08/13 06:55:36;;;;;;;2.97;1.38;;;21.30;86.70;;;;;;5093777;28;20539;-53
2022/08/13 06:58:07;;;;;;;;;;;21.40;85.40;;;;;;5094542;28;20071;-52
2022/08/13 07:00:33;;;;;;;3.67;1.00;;;21.50;84.40;;;;;;5094181;28;19916;-56
2022/08/13 07:03:00;;;;;;;5.00;0.90;;;21.60;85.60;;;;;;5091768;28;20389;-55
2022/08/13 07:05:40;;;;;;;3.50;0.80;;;21.80;85.00;;;;;;5093951;28;20076;-51
2022/08/13 07:08:08;;;;;;;3.65;1.15;;;21.90;84.40;;;;;;5093363;28;20040;-53
2022/08/13 07:10:36;;;;;;;0.88;0.65;;;22.00;84.10;;;;;;5093938;28;20040;-54
2022/08/13 07:13:04;;;;;;;4.70;0.60;;;22.10;82.70;;;;;;5080463;28;20116;-52
2022/08/13 07:15:31;;;;;;;3.35;0.63;;;22.20;82.30;;;;;;5073489;28;20087;-53
2022/08/13 07:17:58;;;;;;;4.13;0.60;;;22.40;82.30;;;;;;5073157;28;20425;-51
2022/08/13 07:20:25;;;;;;;3.75;1.15;;;22.50;81.40;;;;;;5072985;28;20040;-50
2022/08/13 07:22:52;;;;;;;5.65;0.70;;;22.60;81.50;;;;;;5055257;28;20044;-49
2022/08/13 07:25:23;;;;;;;2.53;0.40;;;22.70;81.10;;;;;;5055263;28;20051;-50
2022/08/13 07:27:51;;;;;;;6.47;0.63;;;22.80;80.50;;;;;;5072986;28;20048;-50
2022/08/13 07:30:18;;;;;;;3.35;0.65;;;23.00;80.40;;;;;;5055520;28;20305;-50
2022/08/13 07:32:44;;;;;;;7.38;0.65;;;23.10;80.00;;;;;;5074932;28;20028;-53
2022/08/13 07:35:11;;;;;;;;;;;23.30;79.50;;;;;;5091162;28;20459;-53
2022/08/13 07:37:39;;;;;;;1.02;0.60;;;23.40;80.10;;;;;;5088805;28;20015;-51
2022/08/13 07:40:08;;;;;;;1.05;0.40;;;23.50;79.20;;;;;;5072948;28;20123;-51
2022/08/13 07:42:41;;;;;;;2.30;0.57;;;23.60;78.50;;;;;;5055098;28;20091;-50
2022/08/13 07:45:08;;;;;;;11.25;0.50;;;23.70;77.80;;;;;;5072336;28;20131;-51
2022/08/13 07:47:35;;;;;;;1.95;0.50;;;23.90;77.60;;;;;;5072123;28;20123;-51
2022/08/13 07:50:05;;;;;;;0.90;0.40;;;24.00;77.60;;;;;;5079332;28;20082;-50
2022/08/13 07:52:32;;;;;;;1.15;0.35;;;24.20;77.30;;;;;;5093176;28;20043;-52
2022/08/13 07:55:00;;;;;;;2.50;0.77;;;24.30;77.20;;;;;;5092627;28;20344;-51
2022/08/13 07:57:29;;;;;;;2.67;0.82;;;24.50;77.10;;;;;;5081283;28;20455;-49
2022/08/13 07:59:56;;;;;;;2.92;0.50;;;24.60;76.00;;;;;;5074948;28;20187;-52
2022/08/13 08:02:25;;;;;;;1.75;0.55;;;24.70;76.10;;;;;;5081195;28;20123;-52
2022/08/13 08:04:57;;;;;;;2.25;0.50;;;24.80;75.70;;;;;;5091047;28;20062;-51
2022/08/13 08:07:26;;;;;;;1.98;0.50;;;24.90;76.40;;;;;;5083125;28;20417;-53
2022/08/13 08:09:53;;;;;;;2.63;0.75;;;25.10;75.90;;;;;;5073870;28;20051;-50
2022/08/13 08:12:35;;;;;;;2.63;0.40;;;25.10;74.20;;;;;;5055369;28;20112;-51
2022/08/13 08:15:05;;;;;;;1.83;0.40;;;25.30;73.50;;;;;;5083450;28;20043;-49
2022/08/13 08:17:31;;;;;;;2.88;0.57;;;25.40;72.90;;;;;;5085711;28;20062;-50
2022/08/13 08:19:57;;;;;;;3.13;0.60;;;25.40;74.20;;;;;;5088042;28;20040;-52
2022/08/13 08:22:23;;;;;;;2.00;0.30;;;25.50;73.60;;;;;;5075720;28;20280;-51
2022/08/13 08:24:50;;;;;;;3.28;0.55;;;25.60;72.80;;;;;;5073162;28;20070;-54
2022/08/13 08:27:17;;;;;;;1.55;0.40;;;25.70;72.20;;;;;;5086050;28;20513;-54
2022/08/13 08:29:44;;;;;;;79.20;4.88;;;25.80;71.80;;;;;;5092453;28;20093;-55
2022/08/13 08:32:12;;;;;;;77.18;4.95;;;25.90;72.00;;;;;;5090649;28;20129;-52
2022/08/13 08:34:39;;;;;;;8.15;0.55;;;26.00;71.00;;;;;;5091933;28;20044;-56
2022/08/13 08:37:05;;;;;;;36.92;2.42;;;26.10;70.90;;;;;;5087232;28;20497;-53
2022/08/13 08:45:13;;;;;;;3.85;0.45;;;26.40;69.30;;;;;;5073091;28;20049;-54
2022/08/13 08:47:40;;;;;;;7.90;0.60;;;26.50;70.10;;;;;;5078919;28;20224;-54
2022/08/13 08:50:07;;;;;;;2.28;0.30;;;26.60;69.30;;;;;;5090708;28;20032;-52
2022/08/13 08:55:19;;;;;;;11.23;0.47;;;26.80;68.10;;;;;;5088558;28;20131;-54
2022/08/13 08:57:46;;;;;;;5.20;0.38;;;26.90;67.70;;;;;;5078178;28;20040;-56
2022/08/13 09:00:16;;;;;;;2.83;0.60;;;26.90;67.80;;;;;;5072746;28;20109;-57
2022/08/13 09:02:45;;;;;;;3.90;0.40;;;27.00;68.60;;;;;;5076233;28;20052;-53
2022/08/13 09:05:14;;;;;;;6.15;0.60;;;27.10;66.20;;;;;;5084361;28;20075;-57
2022/08/13 09:07:46;;;;;;;21.83;0.80;;;27.20;66.10;;;;;;5088266;28;20047;-54
2022/08/13 09:10:14;;;;;;;5.28;0.98;;;27.30;66.40;;;;;;5091825;28;20089;-53
2022/08/13 09:12:45;;;;;;;5.15;0.57;;;27.40;66.50;;;;;;5090564;28;20131;-57
2022/08/13 09:15:17;;;;;;;7.50;0.40;;;27.50;65.30;;;;;;5090839;28;20119;-53
2022/08/13 09:17:43;;;;;;;8.45;0.93;;;27.60;65.70;;;;;;5091099;28;20036;-53
2022/08/13 09:20:24;;;;;;;16.23;1.00;;;27.70;65.20;;;;;;5060555;28;20076;-53
2022/08/13 09:23:04;;;;;;;13.00;1.20;;;27.70;64.30;;;;;;5088981;28;20036;-53
2022/08/13 09:25:30;;;;;;;6.22;0.45;;;27.80;65.20;;;;;;5070395;28;20759;-56
2022/08/13 09:27:57;;;;;;;72.60;4.88;;;27.80;64.70;;;;;;5071218;28;20525;-55
2022/08/13 09:30:23;;;;;;;4.05;0.40;;;27.80;64.20;;;;;;5072911;28;20078;-58
2022/08/13 09:32:53;;;;;;;2.97;0.40;;;27.90;63.90;;;;;;5084791;28;20128;-50
2022/08/13 09:35:19;;;;;;;4.43;0.52;;;27.90;63.00;;;;;;5071750;28;20036;-56
2022/08/13 09:37:44;;;;;;;9.07;0.75;;;27.90;63.70;;;;;;5081054;28;20043;-58
2022/08/13 09:40:13;;;;;;;6.72;0.40;;;27.90;62.90;;;;;;5072452;28;20044;-55
2022/08/13 09:42:57;;;;;;;2.35;0.43;;;28.00;62.30;;;;;;5071630;28;20048;-55
2022/08/13 09:45:27;;;;;;;105.28;8.38;;;28.10;62.00;;;;;;5072051;28;20447;-58
2022/08/13 09:47:54;;;;;;;11.80;0.57;;;28.20;63.20;;;;;;5071609;28;20043;-55
2022/08/13 09:50:21;;;;;;;8.25;0.60;;;28.30;63.10;;;;;;5089042;28;20036;-52
2022/08/13 09:52:51;;;;;;;359.55;25.45;;;28.30;60.70;;;;;;5083752;28;20588;-57
2022/08/13 09:55:17;;;;;;;15.40;1.67;;;28.40;60.80;;;;;;5080158;28;20037;-57
2022/08/13 09:57:51;;;;;;;1.67;0.40;;;28.40;60.60;;;;;;5071600;28;20067;-58
2022/08/13 10:00:22;;;;;;;0.80;0.30;;;28.50;61.10;;;;;;5077031;28;20045;-55
2022/08/13 10:02:56;;;;;;;6.72;0.30;;;28.50;62.10;;;;;;5080065;28;20040;-54
2022/08/13 10:05:22;;;;;;;2.58;0.43;;;28.60;61.80;;;;;;5073238;28;20087;-51
2022/08/13 10:07:48;;;;;;;1.17;0.30;;;28.60;61.00;;;;;;5071478;28;20055;-51
2022/08/13 10:10:15;;;;;;;4.78;0.30;;;28.60;60.90;;;;;;5075817;28;20512;-55
2022/08/13 10:12:41;;;;;;;3.63;0.30;;;28.70;59.40;;;;;;5070743;28;20113;-56
2022/08/13 10:15:12;;;;;;;5.07;0.40;;;28.80;59.40;;;;;;5070844;28;20409;-53
2022/08/13 10:17:45;;;;;;;2.25;0.30;;;28.80;59.20;;;;;;5071804;28;20036;-55
2022/08/13 10:20:19;;;;;;;1.88;0.43;;;28.80;59.80;;;;;;5084671;28;20102;-52
2022/08/13 10:22:45;;;;;;;3.88;0.32;;;28.90;59.80;;;;;;5074830;28;20045;-55
2022/08/13 10:25:11;;;;;;;2.47;0.40;;;29.00;60.10;;;;;;5085107;28;20048;-53
2022/08/13 10:27:37;;;;;;;1.20;0.40;;;29.10;58.60;;;;;;5060198;28;20116;-53
2022/08/13 10:30:05;;;;;;;3.35;0.30;;;29.10;59.20;;;;;;5069653;28;20104;-52
2022/08/13 10:32:30;;;;;;;2.17;0.30;;;29.20;58.90;;;;;;5070023;28;20043;-51
2022/08/13 10:34:56;;;;;;;1.52;0.35;;;29.20;58.10;;;;;;5080442;28;20036;-51
2022/08/13 10:37:21;;;;;;;1.85;0.30;;;29.20;57.90;;;;;;5089717;28;20489;-51
2022/08/13 10:39:47;;;;;;;1.85;0.40;;;29.30;58.00;;;;;;5071724;28;20040;-52
2022/08/13 10:42:13;;;;;;;1.25;0.32;;;29.30;58.10;;;;;;5085377;28;20036;-56
2022/08/13 10:44:40;;;;;;;1.75;0.30;;;29.30;57.50;;;;;;5082543;28;20524;-54
2022/08/13 10:47:07;;;;;;;1.42;0.50;;;29.30;56.90;;;;;;5089551;28;20052;-54
2022/08/13 10:49:33;;;;;;;6.45;0.63;;;29.50;57.10;;;;;;5073901;28;20033;-53
2022/08/13 10:51:59;;;;;;;8.00;0.50;;;29.50;57.40;;;;;;5069625;28;20111;-56
2022/08/13 10:54:25;;;;;;;1.38;0.38;;;29.70;56.80;;;;;;5070480;28;20028;-54
2022/08/13 10:56:51;;;;;;;3.72;0.40;;;29.70;57.40;;;;;;5069605;28;20063;-56
2022/08/13 10:59:16;;;;;;;2.90;0.60;;;29.80;56.70;;;;;;5069324;28;20075;-57
2022/08/13 11:01:42;;;;;;;1.02;0.40;;;29.80;56.70;;;;;;5076467;28;20036;-55
2022/08/13 11:04:08;;;;;;;2.63;0.40;;;29.90;57.10;;;;;;5069228;28;20040;-56
2022/08/13 11:06:36;;;;;;;0.68;0.35;;;30.00;56.40;;;;;;5085356;28;20040;-53
2022/08/13 11:09:02;;;;;;;1.98;0.30;;;30.00;56.40;;;;;;5089583;28;20676;-56
2022/08/13 11:11:28;;;;;;;4.28;0.52;;;30.00;55.70;;;;;;5071108;28;20036;-56
2022/08/13 11:13:53;;;;;;;4.80;0.52;;;30.00;55.30;;;;;;5086153;28;20039;-55
2022/08/13 11:19:14;;;;;;;18.38;1.58;;;29.90;55.70;;;;;;5081487;28;20048;-54
2022/08/13 11:21:39;;;;;;;8.27;0.40;;;29.90;54.50;;;;;;5070699;28;20131;-58
2022/08/13 11:24:05;;;;;;;1.52;0.40;;;30.00;54.60;;;;;;5074945;28;20536;-55
2022/08/13 11:26:30;;;;;;;1.17;0.40;;;30.00;55.00;;;;;;5076478;28;20123;-56
2022/08/13 11:28:57;;;;;;;2.42;0.38;;;30.10;54.90;;;;;;5077501;28;20413;-57
2022/08/13 11:31:23;;;;;;;3.03;0.60;;;30.10;54.90;;;;;;5057781;28;20045;-54
2022/08/13 11:33:49;;;;;;;2.40;0.40;;;30.00;54.90;;;;;;5072982;28;20044;-57
2022/08/13 11:36:15;;;;;;;3.28;0.30;;;30.00;54.80;;;;;;5073858;28;20067;-56
2022/08/13 11:38:41;;;;;;;0.40;0.30;;;30.10;54.50;;;;;;5092740;28;20043;-58
2022/08/13 11:41:07;;;;;;;5.07;0.60;;;30.10;53.90;;;;;;5093377;28;20241;-58
2022/08/13 11:43:34;;;;;;;4.07;0.98;;;30.10;53.70;;;;;;5092857;28;20054;-57
2022/08/13 11:45:59;;;;;;;5.22;0.40;;;30.10;54.10;;;;;;5090822;28;20139;-57
2022/08/13 11:48:25;;;;;;;1.83;0.38;;;30.20;52.90;;;;;;5077562;28;20513;-56
2022/08/13 11:50:52;;;;;;;1.33;0.38;;;30.20;53.20;;;;;;5085191;28;20112;-58
2022/08/13 11:53:19;;;;;;;2.78;0.40;;;30.30;54.30;;;;;;5076218;28;20075;-57
2022/08/13 11:55:44;;;;;;;3.03;0.32;;;30.30;53.30;;;;;;5078955;28;20067;-57
2022/08/13 11:58:10;;;;;;;1.50;0.40;;;30.30;53.20;;;;;;5085586;28;20547;-57
2022/08/13 12:00:38;;;;;;;2.85;0.30;;;30.30;53.70;;;;;;5074506;28;20078;-56
2022/08/13 12:03:05;;;;;;;0.70;0.60;;;30.30;53.10;;;;;;5075451;28;20067;-54
2022/08/13 12:05:30;;;;;;;1.98;0.20;;;30.30;52.70;;;;;;5073047;28;20501;-57
2022/08/13 12:07:56;;;;;;;2.60;0.30;;;30.30;53.40;;;;;;5069817;28;20024;-55
2022/08/13 12:10:22;;;;;;;0.73;0.30;;;30.50;52.90;;;;;;5089243;28;20510;-57
2022/08/13 12:12:48;;;;;;;1.48;0.28;;;30.50;53.10;;;;;;5072053;28;20051;-58
2022/08/13 12:15:14;;;;;;;106.78;5.68;;;30.60;52.90;;;;;;5072305;28;20051;-58
2022/08/13 12:17:44;;;;;;;0.93;0.30;;;30.60;52.30;;;;;;5071920;28;20512;-57
2022/08/13 12:20:12;;;;;;;5.18;0.88;;;30.70;52.60;;;;;;5073146;28;20056;-57
2022/08/13 12:22:38;;;;;;;0.43;0.30;;;30.60;51.70;;;;;;5071803;28;20126;-58
2022/08/13 12:25:04;;;;;;;1.58;0.25;;;30.70;52.20;;;;;;5072051;28;20082;-57
2022/08/13 12:27:30;;;;;;;3.33;0.40;;;30.70;52.10;;;;;;5071976;28;20448;-57
2022/08/13 12:29:55;;;;;;;6.88;0.98;;;30.70;52.30;;;;;;5083442;28;20097;-57
2022/08/13 12:32:21;;;;;;;4.28;0.55;;;30.80;52.40;;;;;;5092281;28;20066;-57
2022/08/13 12:34:47;;;;;;;2.28;0.30;;;30.80;52.50;;;;;;5090725;28;20050;-57
2022/08/13 12:37:12;;;;;;;5.88;0.32;;;30.80;51.70;;;;;;5075213;28;20074;-56
2022/08/13 12:39:38;;;;;;;5.22;0.50;;;30.80;52.00;;;;;;5073094;28;20041;-57
2022/08/13 12:42:04;;;;;;;4.25;0.50;;;30.80;52.10;;;;;;5072027;28;20522;-58
2022/08/13 12:44:29;;;;;;;6.82;0.70;;;30.70;52.30;;;;;;5061760;28;20044;-57
2022/08/13 12:46:55;;;;;;;86.07;6.43;;;30.70;51.60;;;;;;5089770;28;20032;-57
2022/08/13 12:49:20;;;;;;;7.93;0.40;;;30.70;51.70;;;;;;5079841;28;20035;-57
2022/08/13 12:51:46;;;;;;;5.38;0.60;;;30.80;52.90;;;;;;5081949;28;20222;-59
2022/08/13 12:54:11;;;;;;;10.30;1.05;;;30.90;53.30;;;;;;5083832;28;20043;-60
2022/08/13 12:56:37;;;;;;;30.48;1.85;;;30.90;53.30;;;;;;5088507;28;20032;-58
2022/08/13 12:59:04;;;;;;;2.30;0.47;;;30.90;52.60;;;;;;5074091;28;20082;-60
2022/08/13 13:01:32;;;;;;;1.02;0.30;;;30.80;52.00;;;;;;5091148;28;20076;-60
2022/08/13 13:03:58;;;;;;;0.90;0.40;;;30.80;52.20;;;;;;5091340;28;20044;-59
2022/08/13 13:06:23;;;;;;;1.38;0.50;;;30.80;51.80;;;;;;5083585;28;20033;-59
2022/08/13 13:08:49;;;;;;;2.47;0.40;;;30.90;52.00;;;;;;5088763;28;20036;-60
2022/08/13 13:11:14;;;;;;;3.63;0.60;;;30.90;50.70;;;;;;5084543;28;20111;-60
2022/08/13 13:13:48;;;;;;;2.25;0.63;;;30.90;51.20;;;;;;5071104;28;20036;-60